aviador You're here:

YCDU Decoded Metar

in
Report Time2018-07-20 16:00:00
UTC Time2018-07-20 16:42:17
Flight Rules vfr VFR
Wind030° at 06 kt
W.Decomp.*RWY 35: 4.6 kt HW 3.9 kt RCW
RWY 11: 1.0 kt HW 5.9 kt LCW
W.Rank030° ranks 13
Current wind is below 030° avg. (9.3)
Visibility9999 m
Phenomena:N/A
Clouds:N/A
Expected CloudBase > 400 ft AGL from Temp-Dew spread
CeilingNone
Temp06°C
Dew Point05°C (93% RH)
AAT2.7°C
QNH1022 hPa
Raw Report
METAR YCDU 201600Z AUTO 03006KT 9999 // NCD 06/05 Q1022=

Extra information for YCDU:More info

Social comments